Henry B. Bigelow — WTDF — position and weather

sailwx.info

Track history (hours):
 
Tides and Currents Weather Stations Pressure Air Temp Water Temp Dewpoint Dewpoint Depression Visibility Wind Speed Wind Dir Waves Ship Positions

Oceanographic research ship Henry B. Bigelow (USA)

Ship's website: http://www.moc.noaa.gov/hb/

Last reported at 2017-Mar-23 12:44 UTC. Time now 2017-Mar-25 09:42 UTC.
Position N 41°30' W 071°18'.

Type: Other ship. MMSI: 369991000.

Wind from 340 at 16 knots

Barometer 1031.6 mb
Air temperature -6.5 ° C
Water temperature 2.9 ° C

Date/timePositionNaut miles runAvg speedWind from/ knotsBaromVisibWave heightAir tempDewpointWater temp
2017-Mar-23 12:44N 41°30' W 071°18'211.3 340 / 161031.6 -6.5 2.9
2017-Mar-23 12:33N 41°32' W 071°19'8 9.5
2017-Mar-23 11:45N 41°24' W 071°18'0 0.0 300 / 91028.3 -7.2 3.1
2017-Mar-23 10:46N 41°24' W 071°18'0 0.0 300 / 121025.2 -7.4 3.4
2017-Mar-23 09:47N 41°24' W 071°18'1212.2 340 / 161023.2 -7.0 3.5
2017-Mar-23 08:48N 41°12' W 071°18'1312.8 350 / 231022.3 -6.3 4.5
2017-Mar-23 07:48N 41°00' W 071°24'8 7.6 310 / 241020.9 -5.8 4.8
2017-Mar-23 06:49N 40°54' W 071°30'1111.1 300 / 181020.7 -5.1 5.0
2017-Mar-23 05:50N 40°48' W 071°42'9 9.2 300 / 251020.9 -4.4 5.1
2017-Mar-23 04:51N 40°48' W 071°54'1111.1 270 / 171020.1 -4.2 4.4
2017-Mar-23 03:52N 40°42' W 072°06'8 7.7 270 / 161019.9 -4.0 5.6
2017-Mar-23 02:53N 40°36' W 072°12'1110.9 300 / 201020.1 -3.5 5.8
2017-Mar-23 01:53N 40°30' W 072°24'8 7.7 290 / 221019.3 -3.0 5.9
2017-Mar-23 00:54N 40°24' W 072°30'2211.1 320 / 251018.3 -2.2 6.4
2017-Mar-22 22:56N 40°12' W 072°54'8 7.7 300 / 261016.8 -0.7 5.4
2017-Mar-22 21:57N 40°06' W 073°00'1111.0 270 / 171016.5 0.1 6.1
2017-Mar-22 20:57N 40°00' W 073°12'1111.2 330 / 141016.5 0.1 6.1
2017-Mar-22 19:58N 39°54' W 073°24'8 7.7 270 / 151017.2 0.2 5.2
2017-Mar-22 18:59N 39°48' W 073°30'11 8.8 300 / 201016.6 0.4 6.6
2017-Mar-22 17:44N 39°42' W 073°42'9 9.4 300 / 231017.2 1.7 5.8
2017-Mar-22 16:45N 39°42' W 073°54'414.8 300 / 151016.7 2.0 5.2
2017-Mar-22 16:30N 39°41' W 073°58'6 8.4
2017-Mar-22 15:46N 39°36' W 073°54'522.7 340 / 411016.0 1.9 5.2
2017-Mar-22 15:33N 39°39' W 073°58'5 5.9
2017-Mar-22 14:47N 39°36' W 073°54'1 5.6 330 / 321015.8 2.6 5.4
2017-Mar-22 14:34N 39°37' W 073°54'7 9.2
2017-Mar-22 13:47N 39°30' W 073°54'8 7.7 300 / 291015.2 3.6 5.4
2017-Mar-22 12:48N 39°24' W 073°48'6 6.1 320 / 321016.3 4.2 5.7
2017-Mar-22 11:49N 39°30' W 073°48'4 9.1 340 / 291013.3 5.2 5.5
2017-Mar-22 11:24N 39°30' W 073°53'610.3
2017-Mar-22 10:50N 39°24' W 073°54'5 4.7 350 / 211012.4 5.8 5.4
2017-Mar-22 09:51N 39°24' W 074°00'3 9.9 300 / 191011.6 6.3 5.3
2017-Mar-22 09:32N 39°25' W 074°04'713.1
2017-Mar-22 09:00N 39°18' W 074°00'969.6 310 / 131011.0 5.4 8.0 4.9 4.7
2017-Mar-22 08:52N 39°18' W 074°12'4 6.5 310 / 151011.7 6.3 4.8
2017-Mar-22 08:15N 39°17' W 074°17'512.9
2017-Mar-22 07:52N 39°12' W 074°18'5 4.7 310 / 151011.5 7.4 4.8
2017-Mar-22 06:53N 39°12' W 074°12'0 0.0 290 / 131012.0 5.8 4.6
2017-Mar-22 05:54N 39°12' W 074°12'1111.3 250 / 151011.9 6.3 4.7
2017-Mar-22 04:55N 39°06' W 074°00'0 0.0 240 / 111011.6 6.5 5.3
2017-Mar-22 03:56N 39°06' W 074°00'8 7.7 210 / 121012.0 5.9 5.1
2017-Mar-22 02:57N 39°00' W 074°06'0 0.0 250 / 111011.3 6.1 5.0
2017-Mar-22 01:57N 39°00' W 074°06'5 4.7 260 / 101011.6 5.9 4.9
2017-Mar-22 00:58N 39°00' W 074°12'15 6.8 270 / 141013.2 6.7 5.1
2017-Mar-21 22:44N 39°06' W 074°30'6 6.1 270 / 151015.3 8.6 4.6
2017-Mar-21 21:45N 39°00' W 074°30'6 6.1 230 / 121017.3 6.5 4.7
2017-Mar-21 20:46N 38°54' W 074°30'8 7.7 220 / 91018.9 6.1 5.0
2017-Mar-21 19:47N 38°48' W 074°24'11 3.7 230 / 121017.3 5.8 5.6
2017-Mar-21 16:49N 38°42' W 074°36'5 4.8 170 / 11017.9 5.8 5.2
2017-Mar-21 15:50N 38°42' W 074°42'5 4.7 050 / 31017.9 5.9 5.3
2017-Mar-21 14:50N 38°42' W 074°48'6 6.1 120 / 41017.2 5.9 5.1
2017-Mar-21 13:51N 38°36' W 074°48'0 0.0 070 / 61016.1 5.7 5.2
2017-Mar-21 12:51N 38°36' W 074°48'6 6.1 110 / 51015.6 5.7 5.0
2017-Mar-21 11:52N 38°30' W 074°48'6 6.1 100 / 21015.5 6.6 5.1
2017-Mar-21 10:53N 38°24' W 074°48'0 0.0 180 / 21015.6 5.6 5.1
2017-Mar-21 09:53N 38°24' W 074°48'8 8.6 150 / 41015.2 6.1 5.1
2017-Mar-21 09:00N 38°18' W 074°42'547.1 200 / 51015.2 5.4 7.0 4.9 5.3
2017-Mar-21 08:54N 38°18' W 074°48'8 7.8 220 / 91015.5 5.4 5.3
2017-Mar-21 07:55N 38°12' W 074°54'0 0.0 230 / 71015.5 5.6 5.5
2017-Mar-21 06:55N 38°12' W 074°54'9 9.6 260 / 71016.5 5.7 5.5
2017-Mar-21 05:56N 38°12' W 074°42'0 0.0 260 / 71016.8 6.2 5.7
2017-Mar-21 04:56N 38°12' W 074°42'6 6.1 270 / 91016.7 6.3 5.8
2017-Mar-21 03:57N 38°06' W 074°42'1111.2 270 / 91017.5 5.9 5.9
2017-Mar-21 02:57N 38°00' W 074°30'6 6.1 220 / 31016.8 6.5 7.3
2017-Mar-21 01:58N 37°54' W 074°30'0 0.0 230 / 51016.4 5.8 7.0
2017-Mar-21 00:59N 37°54' W 074°30'2010.0 220 / 61016.0 5.1 6.9
2017-Mar-20 23:00N 37°48' W 074°54'9 7.5 170 / 71019.5 5.2 6.3
2017-Mar-20 21:44N 37°48' W 075°06'6 6.1 110 / 41022.5 5.8 5.9
2017-Mar-20 20:45N 37°42' W 075°06'0 0.0 130 / 71022.5 6.8 6.4
2017-Mar-20 19:45N 37°42' W 075°06'5 4.8 110 / 41023.6 6.7 6.9
2017-Mar-20 18:46N 37°42' W 075°00'912.4 1022.9 5.0
2017-Mar-20 18:00N 37°42' W 074°48'520.3 020 / 21019.810.8 4.9 2.9 6.5
2017-Mar-20 17:46N 37°42' W 074°54'8 7.8 020 / 51022.8 4.8 6.5
2017-Mar-20 16:47N 37°36' W 075°00'6 6.0 010 / 91021.8 4.2 6.5
2017-Mar-20 15:47N 37°30' W 075°00'6 6.1 340 / 121022.1 4.3 6.7
2017-Mar-20 14:48N 37°24' W 075°00'8 7.8 010 / 151021.7 4.2 6.8
2017-Mar-20 13:49N 37°18' W 074°54'6 6.0 350 / 201021.7 4.9 7.4
2017-Mar-20 12:49N 37°12' W 074°54'5 4.9 320 / 181021.6 4.8 7.5
2017-Mar-20 11:50N 37°12' W 075°00'8 7.7 340 / 161020.5 5.1 7.1
2017-Mar-20 10:50N 37°18' W 075°06'5 4.9 330 / 171019.7 4.5 6.7
2017-Mar-20 09:51N 37°18' W 075°12'8 7.8 350 / 221019.7 4.8 6.8
2017-Mar-20 08:52N 37°24' W 075°06'0 0.0 330 / 211018.8 4.9 6.6
2017-Mar-20 07:52N 37°24' W 075°06'8 7.8 340 / 221019.0 5.1 6.6
2017-Mar-20 06:53N 37°30' W 075°12'8 7.7 340 / 191019.5 6.5 6.5
2017-Mar-20 05:53N 37°36' W 075°18'0 0.0 330 / 171019.8 6.2 6.1
2017-Mar-20 04:54N 37°36' W 075°18'6 6.1 330 / 241019.7 5.2 6.2
2017-Mar-20 03:55N 37°30' W 075°18'0 0.0 310 / 111020.5 5.6 6.3
2017-Mar-20 02:55N 37°30' W 075°18'8 7.8 320 / 171020.2 5.7 6.5
2017-Mar-20 01:56N 37°24' W 075°24'0 0.0 030 / 71019.5 4.7 6.6
2017-Mar-20 00:56N 37°24' W 075°24'6 3.1 030 / 81018.5 4.7 6.6
2017-Mar-19 22:58N 37°18' W 075°24'0 0.0 030 / 91019.7 4.5 6.8
2017-Mar-19 21:58N 37°18' W 075°24'8 7.8 030 / 111020.7 5.1 6.8
2017-Mar-19 20:59N 37°12' W 075°30'8 7.8 360 / 151021.7 6.1 6.8
2017-Mar-19 20:00N 37°18' W 075°24'6 4.7 360 / 231020.6 5.1 6.8
2017-Mar-19 18:44N 37°12' W 075°24'5 4.9 360 / 251019.1 4.0 6.9
2017-Mar-19 17:45N 37°12' W 075°30'0 0.0 010 / 281018.1 3.9 6.8
2017-Mar-19 16:45N 37°12' W 075°30'8 7.8 010 / 361019.2 3.6 7.0
2017-Mar-19 15:46N 37°06' W 075°36'0 0.0 010 / 291017.9 3.4 6.9
2017-Mar-19 14:47N 37°06' W 075°36'0 0.0 360 / 371017.9 2.5 7.1
2017-Mar-19 13:47N 37°06' W 075°36'6 6.1 010 / 341016.9 3.5 7.2
2017-Mar-19 12:48N 37°00' W 075°36'1212.0 010 / 311017.2 4.5 7.4
2017-Mar-19 11:48N 36°48' W 075°36'0 0.0 010 / 321014.6 5.3 7.6
2017-Mar-19 10:49N 36°48' W 075°36'6 6.1 020 / 251009.9 6.1 7.4
2017-Mar-19 09:50N 36°42' W 075°36'6 6.0 030 / 231010.2 6.2 7.4
2017-Mar-19 08:50N 36°36' W 075°36'1212.2 020 / 171013.6 6.5 8.0
2017-Mar-19 07:51N 36°24' W 075°36'0 0.0 020 / 141015.9 6.5 8.4
2017-Mar-19 06:52N 36°24' W 075°36'8 7.7 010 / 151017.0 6.6 8.6
2017-Mar-19 05:52N 36°18' W 075°30'0 0.0 330 / 131016.9 7.4 8.8
2017-Mar-19 04:53N 36°18' W 075°30'0 0.0 350 / 61016.9 7.4 8.6
2017-Mar-19 03:54N 36°18' W 075°30'8 7.7 030 / 91016.5 7.9 8.5
2017-Mar-19 02:54N 36°12' W 075°24'8 7.8 340 / 181016.7 8.0 8.8
2017-Mar-19 01:55N 36°06' W 075°18'0 0.0 330 / 111017.9 8.6 8.9
2017-Mar-19 00:56N 36°06' W 075°18'18 9.1 290 / 71018.0 8.6 8.8
2017-Mar-18 22:57N 35°48' W 075°18'0 0.0 190 / 111018.2 9.4 10.0
2017-Mar-18 21:58N 35°48' W 075°18'0 0.0 230 / 91018.6 8.9 10.2
2017-Mar-18 20:58N 35°48' W 075°18'8 7.9 240 / 121019.9 9.5 9.6
2017-Mar-18 19:59N 35°42' W 075°24'0 0.0 250 / 91020.9 9.8 11.4
2017-Mar-18 18:59N 35°42' W 075°24'0 0.0 230 / 91022.5 9.0 11.3
2017-Mar-18 18:00N 35°42' W 075°24'0 0.0 250 / 141023.9 8.9 11.3
2017-Mar-18 16:45N 35°42' W 075°24'0 0.0 240 / 181024.1 9.1 11.4
2017-Mar-18 15:45N 35°42' W 075°24'0 0.0 240 / 241025.2 9.7 11.0
2017-Mar-18 14:46N 35°42' W 075°24'0 0.0 230 / 261025.5 10.7 11.0
2017-Mar-18 13:46N 35°42' W 075°24'0 0.0 220 / 191025.6 10.3 11.0
2017-Mar-18 12:47N 35°42' W 075°24'0 0.0 210 / 241025.7 10.0 10.9
2017-Mar-18 11:48N 35°42' W 075°24'0 0.0 220 / 241025.4 10.7 10.7
2017-Mar-18 10:48N 35°42' W 075°24'0 0.0 210 / 181025.2 9.8 11.1
2017-Mar-18 09:49N 35°42' W 075°24'0 0.0 190 / 121025.1 9.1 11.2
2017-Mar-18 08:49N 35°42' W 075°24'0 0.0 160 / 121024.4 8.8 11.1
2017-Mar-18 07:50N 35°42' W 075°24'0 0.0 170 / 31024.5 8.1 11.1
2017-Mar-18 06:51N 35°42' W 075°24'0 0.0 170 / 51026.7 8.5 10.8
2017-Mar-18 05:51N 35°42' W 075°24'0 0.0 250 / 31027.6 8.4 9.5
2017-Mar-18 04:52N 35°42' W 075°24'0 0.0 230 / 61027.4 8.5 9.2
2017-Mar-18 03:53N 35°42' W 075°24'0 0.0 230 / 61027.3 8.5 9.8
2017-Mar-18 02:53N 35°42' W 075°24'0 0.0 190 / 81027.6 8.8 11.1
2017-Mar-18 01:54N 35°42' W 075°24'0 0.0 210 / 111027.7 8.1 11.0
2017-Mar-18 00:54N 35°42' W 075°24'0 0.0 200 / 191027.5 7.7 11.0
2017-Mar-17 22:56N 35°42' W 075°24'0 0.0 170 / 111028.0 6.8 11.0
2017-Mar-17 21:56N 35°42' W 075°24'0 0.0 180 / 81030.3 7.7 11.2
2017-Mar-17 20:57N 35°42' W 075°24'0 0.0 170 / 31030.7 6.5 11.0
2017-Mar-17 19:58N 35°42' W 075°24'0 0.0 180 / 41032.9 6.6 10.9
2017-Mar-17 18:58N 35°42' W 075°24'0 0.0 040 / 41033.7 6.3 10.7
2017-Mar-17 17:59N 35°42' W 075°24'0 0.0 010 / 51032.4 5.7 10.7
2017-Mar-17 16:59N 35°42' W 075°24'0 0.0 340 / 91031.1 5.3 10.5
2017-Mar-17 16:00N 35°42' W 075°24'0 0.0 340 / 131032.2 5.2 10.4
2017-Mar-17 14:45N 35°42' W 075°24'0 0.0 330 / 141031.6 5.2 10.4
2017-Mar-17 13:46N 35°42' W 075°24'0 0.0 340 / 151030.7 5.7 10.3
2017-Mar-17 12:46N 35°42' W 075°24'0 0.0 350 / 161029.7 5.3 10.3
2017-Mar-17 11:47N 35°42' W 075°24'0 0.0 340 / 181029.7 5.1 10.2
2017-Mar-17 10:48N 35°42' W 075°24'0 0.0 340 / 131029.0 5.1 10.3
2017-Mar-17 09:48N 35°42' W 075°24'0 0.0 340 / 131029.3 5.1 10.2
2017-Mar-17 08:49N 35°42' W 075°24'0 0.0 320 / 131023.8 4.9 10.2
2017-Mar-17 07:49N 35°42' W 075°24'0 0.0 330 / 141023.1 5.3 10.0
2017-Mar-17 06:50N 35°42' W 075°24'0 0.0 300 / 131022.8 4.8 10.0
2017-Mar-17 05:50N 35°42' W 075°24'0 0.0 290 / 131022.5 5.2 9.8
2017-Mar-17 04:51N 35°42' W 075°24'0 0.0 270 / 111022.4 5.4 9.7
2017-Mar-17 03:52N 35°42' W 075°24'0 0.0 260 / 111021.7 5.6 9.9
2017-Mar-17 02:52N 35°42' W 075°24'0 0.0 260 / 111021.6 6.1 9.9
2017-Mar-17 01:53N 35°42' W 075°24'0 0.0 300 / 111021.9 5.7 9.9
2017-Mar-17 00:53N 35°42' W 075°24'0 0.0 280 / 131022.5 5.7 9.9
2017-Mar-16 22:55N 35°42' W 075°24'0 0.0 260 / 11024.9 7.0 9.9
2017-Mar-16 21:55N 35°42' W 075°24'0 0.0 190 / 41025.1 6.5 9.9
2017-Mar-16 20:56N 35°42' W 075°24'0 0.0 190 / 61025.0 3.5 10.0
2017-Mar-16 19:57N 35°42' W 075°24'0 0.0 210 / 61024.7 3.3 9.9
2017-Mar-16 18:57N 35°42' W 075°24'0 0.0 300 / 81026.1 3.0 9.7
2017-Mar-16 17:58N 35°42' W 075°24'0 0.0 320 / 101025.7 1.9 9.6
2017-Mar-16 16:58N 35°42' W 075°24'0 0.0 310 / 111024.4 1.7 9.5
2017-Mar-16 15:59N 35°42' W 075°24'0 0.0 310 / 201023.4 1.7 9.4
2017-Mar-16 15:00N 35°42' W 075°24'0 0.0 320 / 151022.4 0.8 9.2
2017-Mar-16 14:00N 35°42' W 075°24'0 0.0 310 / 191021.4 1.2 9.2
2017-Mar-16 12:45N 35°42' W 075°24'0 0.0 330 / 201020.6 1.2 9.1
2017-Mar-16 11:46N 35°42' W 075°24'0 0.0 340 / 181019.6 1.0 9.1
2017-Mar-16 10:46N 35°42' W 075°24'0 0.0 320 / 251018.8 0.7 9.0
2017-Mar-16 09:47N 35°42' W 075°24'0 0.0 340 / 211017.9 1.0 9.0
2017-Mar-16 08:48N 35°42' W 075°24'5 4.9 320 / 251017.1 1.5 8.9
2017-Mar-16 07:48N 35°42' W 075°18'1313.2 330 / 231016.6 1.9 8.9
2017-Mar-16 06:49N 35°54' W 075°24'0 0.0 310 / 251017.2 2.1 8.7
2017-Mar-16 05:50N 35°54' W 075°24'8 7.7 300 / 251016.5 2.5 8.6
2017-Mar-16 04:50N 36°00' W 075°30'1313.2 300 / 271016.2 1.9 8.4
2017-Mar-16 03:51N 36°12' W 075°36'0 0.0 300 / 161016.4 2.1 8.4
2017-Mar-16 02:52N 36°12' W 075°36'1212.2 270 / 221015.8 2.2 8.3
2017-Mar-16 01:53N 36°24' W 075°36'8 7.7 280 / 211014.5 2.1 8.5
2017-Mar-16 00:53N 36°30' W 075°42'6 3.1 270 / 181013.0 2.4 8.2
2017-Mar-15 22:55N 36°36' W 075°42'1313.1 290 / 191011.6 2.2 7.7
2017-Mar-15 21:56N 36°48' W 075°48'614.3 300 / 261011.4 1.6 7.5
2017-Mar-15 21:32N 36°52' W 075°53'2 3.7
2017-Mar-15 20:57N 36°54' W 075°54'922.4 280 / 221012.4 1.3 7.7
2017-Mar-15 20:33N 36°58' W 076°04'4 6.9
2017-Mar-15 19:58N 36°54' W 076°06'10 9.6 280 / 271012.7 0.7 7.9
2017-Mar-15 18:58N 36°54' W 076°18'2 5.1 270 / 261013.6 0.4 7.7
2017-Mar-15 18:32N 36°52' W 076°20'5 8.6
2017-Mar-15 17:59N 36°48' W 076°18'3 7.4 270 / 151014.3 -0.3 8.9
2017-Mar-15 17:33N 36°51' W 076°18'3 5.7
2017-Mar-15 17:00N 36°48' W 076°18'3 7.1 290 / 221015.6 -1.0 8.9
2017-Mar-15 16:33N 36°51' W 076°18'0 0.0
2017-Mar-15 15:12N 36°51' W 076°18'0 0.0
2017-Mar-15 14:33N 36°51' W 076°18'0 0.0
2017-Mar-15 13:24N 36°51' W 076°18'0 0.0
2017-Mar-15 11:09N 36°51' W 076°18'0 0.0
2017-Mar-15 07:15N 36°51' W 076°18'0 0.0
2017-Mar-15 06:06N 36°51' W 076°18'0 0.0
2017-Mar-15 05:30N 36°51' W 076°18'0 0.0
2017-Mar-15 04:33N 36°51' W 076°18'0 0.0
2017-Mar-15 03:33N 36°51' W 076°18'0 0.0
2017-Mar-15 02:15N 36°51' W 076°18'0 0.0
2017-Mar-14 20:06N 36°51' W 076°18'0 0.0
2017-Mar-14 19:24N 36°51' W 076°18'0 0.0
2017-Mar-14 17:15N 36°51' W 076°18'0 0.0
2017-Mar-14 16:33N 36°51' W 076°18'0 0.0
2017-Mar-14 12:33N 36°51' W 076°18'0 0.0
2017-Mar-14 11:30N 36°51' W 076°18'0 0.0
2017-Mar-14 10:30N 36°51' W 076°18'0 0.0
2017-Mar-14 09:24N 36°51' W 076°18'0 0.0
2017-Mar-14 08:33N 36°51' W 076°18'0 0.0
2017-Mar-14 07:33N 36°51' W 076°18'0 0.0
2017-Mar-14 06:33N 36°51' W 076°18'0 0.0
2017-Mar-14 05:33N 36°51' W 076°18'0 0.0
2017-Mar-14 04:33N 36°51' W 076°18'0 0.0
2017-Mar-14 03:33N 36°51' W 076°18'0 0.0
2017-Mar-14 02:33N 36°51' W 076°18'0 0.0
2017-Mar-14 01:33N 36°51' W 076°18'0 0.0
2017-Mar-14 00:30N 36°51' W 076°18'0 0.0
2017-Mar-13 23:27N 36°51' W 076°18'0 0.0
2017-Mar-13 22:27N 36°51' W 076°18'0 0.0
2017-Mar-13 21:33N 36°51' W 076°18'0 0.0
2017-Mar-13 20:33N 36°51' W 076°18'3 5.3
2017-Mar-13 19:58N 36°48' W 076°18'718.6 100 / 181026.6 4.7 10.0
2017-Mar-13 19:33N 36°55' W 076°20'5 8.8
2017-Mar-13 18:59N 37°00' W 076°18'6 9.3 080 / 121028.0 5.3 8.9
2017-Mar-13 18:21N 36°60' W 076°11'718.3
2017-Mar-13 17:59N 36°54' W 076°06'512.6 080 / 181029.1 3.9 8.5
2017-Mar-13 17:33N 36°57' W 076°01'1112.8
2017-Mar-13 16:44N 36°54' W 075°48'320.3 080 / 201032.1 4.8 8.3
2017-Mar-13 16:33N 36°53' W 075°52'1316.0
2017-Mar-13 15:44N 36°42' W 075°42'8 7.8 080 / 211034.3 5.2 8.5
2017-Mar-13 14:45N 36°36' W 075°36'1515.4 070 / 191034.3 5.3 8.8
2017-Mar-13 13:45N 36°24' W 075°24'8 7.8 080 / 221034.0 5.8 8.9
2017-Mar-13 12:46N 36°18' W 075°18'   060 / 191032.3 5.9 9.1
Track history (hours):
 
Tides and Currents Weather Stations Pressure Air Temp Water Temp Dewpoint Dewpoint Depression Visibility Wind Speed Wind Dir Waves Ship Positions

Oceanographic research ship Henry B. Bigelow (USA)

Ship's website: http://www.moc.noaa.gov/hb/

Last reported at 2017-Mar-23 12:44 UTC. Time now 2017-Mar-25 09:42 UTC.
Position N 41°30' W 071°18'.

Type: Other ship. MMSI: 369991000.

Wind from 340 at 16 knots

Barometer 1031.6 mb
Air temperature -6.5 ° C
Water temperature 2.9 ° C

Date/timePositionNaut miles runAvg speedWind from/ knotsBaromVisibWave heightAir tempDewpointWater temp
2017-Mar-23 12:44N 41°30' W 071°18'211.3 340 / 161031.6 -6.5 2.9
2017-Mar-23 12:33N 41°32' W 071°19'8 9.5
2017-Mar-23 11:45N 41°24' W 071°18'0 0.0 300 / 91028.3 -7.2 3.1
2017-Mar-23 10:46N 41°24' W 071°18'0 0.0 300 / 121025.2 -7.4 3.4
2017-Mar-23 09:47N 41°24' W 071°18'1212.2 340 / 161023.2 -7.0 3.5
2017-Mar-23 08:48N 41°12' W 071°18'1312.8 350 / 231022.3 -6.3 4.5
2017-Mar-23 07:48N 41°00' W 071°24'8 7.6 310 / 241020.9 -5.8 4.8
2017-Mar-23 06:49N 40°54' W 071°30'1111.1 300 / 181020.7 -5.1 5.0
2017-Mar-23 05:50N 40°48' W 071°42'9 9.2 300 / 251020.9 -4.4 5.1
2017-Mar-23 04:51N 40°48' W 071°54'1111.1 270 / 171020.1 -4.2 4.4
2017-Mar-23 03:52N 40°42' W 072°06'8 7.7 270 / 161019.9 -4.0 5.6
2017-Mar-23 02:53N 40°36' W 072°12'1110.9 300 / 201020.1 -3.5 5.8
2017-Mar-23 01:53N 40°30' W 072°24'8 7.7 290 / 221019.3 -3.0 5.9
2017-Mar-23 00:54N 40°24' W 072°30'2211.1 320 / 251018.3 -2.2 6.4
2017-Mar-22 22:56N 40°12' W 072°54'8 7.7 300 / 261016.8 -0.7 5.4
2017-Mar-22 21:57N 40°06' W 073°00'1111.0 270 / 171016.5 0.1 6.1
2017-Mar-22 20:57N 40°00' W 073°12'1111.2 330 / 141016.5 0.1 6.1
2017-Mar-22 19:58N 39°54' W 073°24'8 7.7 270 / 151017.2 0.2 5.2
2017-Mar-22 18:59N 39°48' W 073°30'11 8.8 300 / 201016.6 0.4 6.6
2017-Mar-22 17:44N 39°42' W 073°42'9 9.4 300 / 231017.2 1.7 5.8
2017-Mar-22 16:45N 39°42' W 073°54'414.8 300 / 151016.7 2.0 5.2
2017-Mar-22 16:30N 39°41' W 073°58'6 8.4
2017-Mar-22 15:46N 39°36' W 073°54'522.7 340 / 411016.0 1.9 5.2
2017-Mar-22 15:33N 39°39' W 073°58'5 5.9
2017-Mar-22 14:47N 39°36' W 073°54'1 5.6 330 / 321015.8 2.6 5.4
2017-Mar-22 14:34N 39°37' W 073°54'7 9.2
2017-Mar-22 13:47N 39°30' W 073°54'8 7.7 300 / 291015.2 3.6 5.4
2017-Mar-22 12:48N 39°24' W 073°48'6 6.1 320 / 321016.3 4.2 5.7
2017-Mar-22 11:49N 39°30' W 073°48'4 9.1 340 / 291013.3 5.2 5.5
2017-Mar-22 11:24N 39°30' W 073°53'610.3
2017-Mar-22 10:50N 39°24' W 073°54'5 4.7 350 / 211012.4 5.8 5.4
2017-Mar-22 09:51N 39°24' W 074°00'3 9.9 300 / 191011.6 6.3 5.3
2017-Mar-22 09:32N 39°25' W 074°04'713.1
2017-Mar-22 09:00N 39°18' W 074°00'969.6 310 / 131011.0 5.4 8.0 4.9 4.7
2017-Mar-22 08:52N 39°18' W 074°12'4 6.5 310 / 151011.7 6.3 4.8
2017-Mar-22 08:15N 39°17' W 074°17'512.9
2017-Mar-22 07:52N 39°12' W 074°18'5 4.7 310 / 151011.5 7.4 4.8
2017-Mar-22 06:53N 39°12' W 074°12'0 0.0 290 / 131012.0 5.8 4.6
2017-Mar-22 05:54N 39°12' W 074°12'1111.3 250 / 151011.9 6.3 4.7
2017-Mar-22 04:55N 39°06' W 074°00'0 0.0 240 / 111011.6 6.5 5.3
2017-Mar-22 03:56N 39°06' W 074°00'8 7.7 210 / 121012.0 5.9 5.1
2017-Mar-22 02:57N 39°00' W 074°06'0 0.0 250 / 111011.3 6.1 5.0
2017-Mar-22 01:57N 39°00' W 074°06'5 4.7 260 / 101011.6 5.9 4.9
2017-Mar-22 00:58N 39°00' W 074°12'15 6.8 270 / 141013.2 6.7 5.1
2017-Mar-21 22:44N 39°06' W 074°30'6 6.1 270 / 151015.3 8.6 4.6
2017-Mar-21 21:45N 39°00' W 074°30'6 6.1 230 / 121017.3 6.5 4.7
2017-Mar-21 20:46N 38°54' W 074°30'8 7.7 220 / 91018.9 6.1 5.0
2017-Mar-21 19:47N 38°48' W 074°24'11 3.7 230 / 121017.3 5.8 5.6
2017-Mar-21 16:49N 38°42' W 074°36'5 4.8 170 / 11017.9 5.8 5.2
2017-Mar-21 15:50N 38°42' W 074°42'5 4.7 050 / 31017.9 5.9 5.3
2017-Mar-21 14:50N 38°42' W 074°48'6 6.1 120 / 41017.2 5.9 5.1
2017-Mar-21 13:51N 38°36' W 074°48'0 0.0 070 / 61016.1 5.7 5.2
2017-Mar-21 12:51N 38°36' W 074°48'6 6.1 110 / 51015.6 5.7 5.0
2017-Mar-21 11:52N 38°30' W 074°48'6 6.1 100 / 21015.5 6.6 5.1
2017-Mar-21 10:53N 38°24' W 074°48'0 0.0 180 / 21015.6 5.6 5.1
2017-Mar-21 09:53N 38°24' W 074°48'8 8.6 150 / 41015.2 6.1 5.1
2017-Mar-21 09:00N 38°18' W 074°42'547.1 200 / 51015.2 5.4 7.0 4.9 5.3
2017-Mar-21 08:54N 38°18' W 074°48'8 7.8 220 / 91015.5 5.4 5.3
2017-Mar-21 07:55N 38°12' W 074°54'0 0.0 230 / 71015.5 5.6 5.5
2017-Mar-21 06:55N 38°12' W 074°54'9 9.6 260 / 71016.5 5.7 5.5
2017-Mar-21 05:56N 38°12' W 074°42'0 0.0 260 / 71016.8 6.2 5.7
2017-Mar-21 04:56N 38°12' W 074°42'6 6.1 270 / 91016.7 6.3 5.8
2017-Mar-21 03:57N 38°06' W 074°42'1111.2 270 / 91017.5 5.9 5.9
2017-Mar-21 02:57N 38°00' W 074°30'6 6.1 220 / 31016.8 6.5 7.3
2017-Mar-21 01:58N 37°54' W 074°30'0 0.0 230 / 51016.4 5.8 7.0
2017-Mar-21 00:59N 37°54' W 074°30'2010.0 220 / 61016.0 5.1 6.9
2017-Mar-20 23:00N 37°48' W 074°54'9 7.5 170 / 71019.5 5.2 6.3
2017-Mar-20 21:44N 37°48' W 075°06'6 6.1 110 / 41022.5 5.8 5.9
2017-Mar-20 20:45N 37°42' W 075°06'0 0.0 130 / 71022.5 6.8 6.4
2017-Mar-20 19:45N 37°42' W 075°06'5 4.8 110 / 41023.6 6.7 6.9
2017-Mar-20 18:46N 37°42' W 075°00'912.4 1022.9 5.0
2017-Mar-20 18:00N 37°42' W 074°48'520.3 020 / 21019.810.8 4.9 2.9 6.5
2017-Mar-20 17:46N 37°42' W 074°54'8 7.8 020 / 51022.8 4.8 6.5
2017-Mar-20 16:47N 37°36' W 075°00'6 6.0 010 / 91021.8 4.2 6.5
2017-Mar-20 15:47N 37°30' W 075°00'6 6.1 340 / 121022.1 4.3 6.7
2017-Mar-20 14:48N 37°24' W 075°00'8 7.8 010 / 151021.7 4.2 6.8
2017-Mar-20 13:49N 37°18' W 074°54'6 6.0 350 / 201021.7 4.9 7.4
2017-Mar-20 12:49N 37°12' W 074°54'5 4.9 320 / 181021.6 4.8 7.5
2017-Mar-20 11:50N 37°12' W 075°00'8 7.7 340 / 161020.5 5.1 7.1
2017-Mar-20 10:50N 37°18' W 075°06'5 4.9 330 / 171019.7 4.5 6.7
2017-Mar-20 09:51N 37°18' W 075°12'8 7.8 350 / 221019.7 4.8 6.8
2017-Mar-20 08:52N 37°24' W 075°06'0 0.0 330 / 211018.8 4.9 6.6
2017-Mar-20 07:52N 37°24' W 075°06'8 7.8 340 / 221019.0 5.1 6.6
2017-Mar-20 06:53N 37°30' W 075°12'8 7.7 340 / 191019.5 6.5 6.5
2017-Mar-20 05:53N 37°36' W 075°18'0 0.0 330 / 171019.8 6.2 6.1
2017-Mar-20 04:54N 37°36' W 075°18'6 6.1 330 / 241019.7 5.2 6.2
2017-Mar-20 03:55N 37°30' W 075°18'0 0.0 310 / 111020.5 5.6 6.3
2017-Mar-20 02:55N 37°30' W 075°18'8 7.8 320 / 171020.2 5.7 6.5
2017-Mar-20 01:56N 37°24' W 075°24'0 0.0 030 / 71019.5 4.7 6.6
2017-Mar-20 00:56N 37°24' W 075°24'6 3.1 030 / 81018.5 4.7 6.6
2017-Mar-19 22:58N 37°18' W 075°24'0 0.0 030 / 91019.7 4.5 6.8
2017-Mar-19 21:58N 37°18' W 075°24'8 7.8 030 / 111020.7 5.1 6.8
2017-Mar-19 20:59N 37°12' W 075°30'8 7.8 360 / 151021.7 6.1 6.8
2017-Mar-19 20:00N 37°18' W 075°24'6 4.7 360 / 231020.6 5.1 6.8
2017-Mar-19 18:44N 37°12' W 075°24'5 4.9 360 / 251019.1 4.0 6.9
2017-Mar-19 17:45N 37°12' W 075°30'0 0.0 010 / 281018.1 3.9 6.8
2017-Mar-19 16:45N 37°12' W 075°30'8 7.8 010 / 361019.2 3.6 7.0
2017-Mar-19 15:46N 37°06' W 075°36'0 0.0 010 / 291017.9 3.4 6.9
2017-Mar-19 14:47N 37°06' W 075°36'0 0.0 360 / 371017.9 2.5 7.1
2017-Mar-19 13:47N 37°06' W 075°36'6 6.1 010 / 341016.9 3.5 7.2
2017-Mar-19 12:48N 37°00' W 075°36'1212.0 010 / 311017.2 4.5 7.4
2017-Mar-19 11:48N 36°48' W 075°36'0 0.0 010 / 321014.6 5.3 7.6
2017-Mar-19 10:49N 36°48' W 075°36'6 6.1 020 / 251009.9 6.1 7.4
2017-Mar-19 09:50N 36°42' W 075°36'6 6.0 030 / 231010.2 6.2 7.4
2017-Mar-19 08:50N 36°36' W 075°36'1212.2 020 / 171013.6 6.5 8.0
2017-Mar-19 07:51N 36°24' W 075°36'0 0.0 020 / 141015.9 6.5 8.4
2017-Mar-19 06:52N 36°24' W 075°36'8 7.7 010 / 151017.0 6.6 8.6
2017-Mar-19 05:52N 36°18' W 075°30'0 0.0 330 / 131016.9 7.4 8.8
2017-Mar-19 04:53N 36°18' W 075°30'0 0.0 350 / 61016.9 7.4 8.6
2017-Mar-19 03:54N 36°18' W 075°30'8 7.7 030 / 91016.5 7.9 8.5
2017-Mar-19 02:54N 36°12' W 075°24'8 7.8 340 / 181016.7 8.0 8.8
2017-Mar-19 01:55N 36°06' W 075°18'0 0.0 330 / 111017.9 8.6 8.9
2017-Mar-19 00:56N 36°06' W 075°18'18 9.1 290 / 71018.0 8.6 8.8
2017-Mar-18 22:57N 35°48' W 075°18'0 0.0 190 / 111018.2 9.4 10.0
2017-Mar-18 21:58N 35°48' W 075°18'0 0.0 230 / 91018.6 8.9 10.2
2017-Mar-18 20:58N 35°48' W 075°18'8 7.9 240 / 121019.9 9.5 9.6
2017-Mar-18 19:59N 35°42' W 075°24'0 0.0 250 / 91020.9 9.8 11.4
2017-Mar-18 18:59N 35°42' W 075°24'0 0.0 230 / 91022.5 9.0 11.3
2017-Mar-18 18:00N 35°42' W 075°24'0 0.0 250 / 141023.9 8.9 11.3
2017-Mar-18 16:45N 35°42' W 075°24'0 0.0 240 / 181024.1 9.1 11.4
2017-Mar-18 15:45N 35°42' W 075°24'0 0.0 240 / 241025.2 9.7 11.0
2017-Mar-18 14:46N 35°42' W 075°24'0 0.0 230 / 261025.5 10.7 11.0
2017-Mar-18 13:46N 35°42' W 075°24'0 0.0 220 / 191025.6 10.3 11.0
2017-Mar-18 12:47N 35°42' W 075°24'0 0.0 210 / 241025.7 10.0 10.9
2017-Mar-18 11:48N 35°42' W 075°24'0 0.0 220 / 241025.4 10.7 10.7
2017-Mar-18 10:48N 35°42' W 075°24'0 0.0 210 / 181025.2 9.8 11.1
2017-Mar-18 09:49N 35°42' W 075°24'0 0.0 190 / 121025.1 9.1 11.2
2017-Mar-18 08:49N 35°42' W 075°24'0 0.0 160 / 121024.4 8.8 11.1
2017-Mar-18 07:50N 35°42' W 075°24'0 0.0 170 / 31024.5 8.1 11.1
2017-Mar-18 06:51N 35°42' W 075°24'0 0.0 170 / 51026.7 8.5 10.8
2017-Mar-18 05:51N 35°42' W 075°24'0 0.0 250 / 31027.6 8.4 9.5
2017-Mar-18 04:52N 35°42' W 075°24'0 0.0 230 / 61027.4 8.5 9.2
2017-Mar-18 03:53N 35°42' W 075°24'0 0.0 230 / 61027.3 8.5 9.8
2017-Mar-18 02:53N 35°42' W 075°24'0 0.0 190 / 81027.6 8.8 11.1
2017-Mar-18 01:54N 35°42' W 075°24'0 0.0 210 / 111027.7 8.1 11.0
2017-Mar-18 00:54N 35°42' W 075°24'0 0.0 200 / 191027.5 7.7 11.0
2017-Mar-17 22:56N 35°42' W 075°24'0 0.0 170 / 111028.0 6.8 11.0
2017-Mar-17 21:56N 35°42' W 075°24'0 0.0 180 / 81030.3 7.7 11.2
2017-Mar-17 20:57N 35°42' W 075°24'0 0.0 170 / 31030.7 6.5 11.0
2017-Mar-17 19:58N 35°42' W 075°24'0 0.0 180 / 41032.9 6.6 10.9
2017-Mar-17 18:58N 35°42' W 075°24'0 0.0 040 / 41033.7 6.3 10.7
2017-Mar-17 17:59N 35°42' W 075°24'0 0.0 010 / 51032.4 5.7 10.7
2017-Mar-17 16:59N 35°42' W 075°24'0 0.0 340 / 91031.1 5.3 10.5
2017-Mar-17 16:00N 35°42' W 075°24'0 0.0 340 / 131032.2 5.2 10.4
2017-Mar-17 14:45N 35°42' W 075°24'0 0.0 330 / 141031.6 5.2 10.4
2017-Mar-17 13:46N 35°42' W 075°24'0 0.0 340 / 151030.7 5.7 10.3
2017-Mar-17 12:46N 35°42' W 075°24'0 0.0 350 / 161029.7 5.3 10.3
2017-Mar-17 11:47N 35°42' W 075°24'0 0.0 340 / 181029.7 5.1 10.2
2017-Mar-17 10:48N 35°42' W 075°24'0 0.0 340 / 131029.0 5.1 10.3
2017-Mar-17 09:48N 35°42' W 075°24'0 0.0 340 / 131029.3 5.1 10.2
2017-Mar-17 08:49N 35°42' W 075°24'0 0.0 320 / 131023.8 4.9 10.2
2017-Mar-17 07:49N 35°42' W 075°24'0 0.0 330 / 141023.1 5.3 10.0
2017-Mar-17 06:50N 35°42' W 075°24'0 0.0 300 / 131022.8 4.8 10.0
2017-Mar-17 05:50N 35°42' W 075°24'0 0.0 290 / 131022.5 5.2 9.8
2017-Mar-17 04:51N 35°42' W 075°24'0 0.0 270 / 111022.4 5.4 9.7
2017-Mar-17 03:52N 35°42' W 075°24'0 0.0 260 / 111021.7 5.6 9.9
2017-Mar-17 02:52N 35°42' W 075°24'0 0.0 260 / 111021.6 6.1 9.9
2017-Mar-17 01:53N 35°42' W 075°24'0 0.0 300 / 111021.9 5.7 9.9
2017-Mar-17 00:53N 35°42' W 075°24'0 0.0 280 / 131022.5 5.7 9.9
2017-Mar-16 22:55N 35°42' W 075°24'0 0.0 260 / 11024.9 7.0 9.9
2017-Mar-16 21:55N 35°42' W 075°24'0 0.0 190 / 41025.1 6.5 9.9
2017-Mar-16 20:56N 35°42' W 075°24'0 0.0 190 / 61025.0 3.5 10.0
2017-Mar-16 19:57N 35°42' W 075°24'0 0.0 210 / 61024.7 3.3 9.9
2017-Mar-16 18:57N 35°42' W 075°24'0 0.0 300 / 81026.1 3.0 9.7
2017-Mar-16 17:58N 35°42' W 075°24'0 0.0 320 / 101025.7 1.9 9.6
2017-Mar-16 16:58N 35°42' W 075°24'0 0.0 310 / 111024.4 1.7 9.5
2017-Mar-16 15:59N 35°42' W 075°24'0 0.0 310 / 201023.4 1.7 9.4
2017-Mar-16 15:00N 35°42' W 075°24'0 0.0 320 / 151022.4 0.8 9.2
2017-Mar-16 14:00N 35°42' W 075°24'0 0.0 310 / 191021.4 1.2 9.2
2017-Mar-16 12:45N 35°42' W 075°24'0 0.0 330 / 201020.6 1.2 9.1
2017-Mar-16 11:46N 35°42' W 075°24'0 0.0 340 / 181019.6 1.0 9.1
2017-Mar-16 10:46N 35°42' W 075°24'0 0.0 320 / 251018.8 0.7 9.0
2017-Mar-16 09:47N 35°42' W 075°24'0 0.0 340 / 211017.9 1.0 9.0
2017-Mar-16 08:48N 35°42' W 075°24'5 4.9 320 / 251017.1 1.5 8.9
2017-Mar-16 07:48N 35°42' W 075°18'1313.2 330 / 231016.6 1.9 8.9
2017-Mar-16 06:49N 35°54' W 075°24'0 0.0 310 / 251017.2 2.1 8.7
2017-Mar-16 05:50N 35°54' W 075°24'8 7.7 300 / 251016.5 2.5 8.6
2017-Mar-16 04:50N 36°00' W 075°30'1313.2 300 / 271016.2 1.9 8.4
2017-Mar-16 03:51N 36°12' W 075°36'0 0.0 300 / 161016.4 2.1 8.4
2017-Mar-16 02:52N 36°12' W 075°36'1212.2 270 / 221015.8 2.2 8.3
2017-Mar-16 01:53N 36°24' W 075°36'8 7.7 280 / 211014.5 2.1 8.5
2017-Mar-16 00:53N 36°30' W 075°42'6 3.1 270 / 181013.0 2.4 8.2
2017-Mar-15 22:55N 36°36' W 075°42'1313.1 290 / 191011.6 2.2 7.7
2017-Mar-15 21:56N 36°48' W 075°48'614.3 300 / 261011.4 1.6 7.5
2017-Mar-15 21:32N 36°52' W 075°53'2 3.7
2017-Mar-15 20:57N 36°54' W 075°54'922.4 280 / 221012.4 1.3 7.7
2017-Mar-15 20:33N 36°58' W 076°04'4 6.9
2017-Mar-15 19:58N 36°54' W 076°06'10 9.6 280 / 271012.7 0.7 7.9
2017-Mar-15 18:58N 36°54' W 076°18'2 5.1 270 / 261013.6 0.4 7.7
2017-Mar-15 18:32N 36°52' W 076°20'5 8.6
2017-Mar-15 17:59N 36°48' W 076°18'3 7.4 270 / 151014.3 -0.3 8.9
2017-Mar-15 17:33N 36°51' W 076°18'3 5.7
2017-Mar-15 17:00N 36°48' W 076°18'3 7.1 290 / 221015.6 -1.0 8.9
2017-Mar-15 16:33N 36°51' W 076°18'0 0.0
2017-Mar-15 15:12N 36°51' W 076°18'0 0.0
2017-Mar-15 14:33N 36°51' W 076°18'0 0.0
2017-Mar-15 13:24N 36°51' W 076°18'0 0.0
2017-Mar-15 11:09N 36°51' W 076°18'0 0.0
2017-Mar-15 07:15N 36°51' W 076°18'0 0.0
2017-Mar-15 06:06N 36°51' W 076°18'0 0.0
2017-Mar-15 05:30N 36°51' W 076°18'0 0.0
2017-Mar-15 04:33N 36°51' W 076°18'0 0.0
2017-Mar-15 03:33N 36°51' W 076°18'0 0.0
2017-Mar-15 02:15N 36°51' W 076°18'0 0.0
2017-Mar-14 20:06N 36°51' W 076°18'0 0.0
2017-Mar-14 19:24N 36°51' W 076°18'0 0.0
2017-Mar-14 17:15N 36°51' W 076°18'0 0.0
2017-Mar-14 16:33N 36°51' W 076°18'0 0.0
2017-Mar-14 12:33N 36°51' W 076°18'0 0.0
2017-Mar-14 11:30N 36°51' W 076°18'0 0.0
2017-Mar-14 10:30N 36°51' W 076°18'0 0.0
2017-Mar-14 09:24N 36°51' W 076°18'0 0.0
2017-Mar-14 08:33N 36°51' W 076°18'0 0.0
2017-Mar-14 07:33N 36°51' W 076°18'0 0.0
2017-Mar-14 06:33N 36°51' W 076°18'0 0.0
2017-Mar-14 05:33N 36°51' W 076°18'0 0.0
2017-Mar-14 04:33N 36°51' W 076°18'0 0.0
2017-Mar-14 03:33N 36°51' W 076°18'0 0.0
2017-Mar-14 02:33N 36°51' W 076°18'0 0.0
2017-Mar-14 01:33N 36°51' W 076°18'0 0.0
2017-Mar-14 00:30N 36°51' W 076°18'0 0.0
2017-Mar-13 23:27N 36°51' W 076°18'0 0.0
2017-Mar-13 22:27N 36°51' W 076°18'0 0.0
2017-Mar-13 21:33N 36°51' W 076°18'0 0.0
2017-Mar-13 20:33N 36°51' W 076°18'3 5.3
2017-Mar-13 19:58N 36°48' W 076°18'718.6 100 / 181026.6 4.7 10.0
2017-Mar-13 19:33N 36°55' W 076°20'5 8.8
2017-Mar-13 18:59N 37°00' W 076°18'6 9.3 080 / 121028.0 5.3 8.9
2017-Mar-13 18:21N 36°60' W 076°11'718.3
2017-Mar-13 17:59N 36°54' W 076°06'512.6 080 / 181029.1 3.9 8.5
2017-Mar-13 17:33N 36°57' W 076°01'1112.8
2017-Mar-13 16:44N 36°54' W 075°48'320.3 080 / 201032.1 4.8 8.3
2017-Mar-13 16:33N 36°53' W 075°52'1316.0
2017-Mar-13 15:44N 36°42' W 075°42'8 7.8 080 / 211034.3 5.2 8.5
2017-Mar-13 14:45N 36°36' W 075°36'1515.4 070 / 191034.3 5.3 8.8
2017-Mar-13 13:45N 36°24' W 075°24'8 7.8 080 / 221034.0 5.8 8.9
2017-Mar-13 12:46N 36°18' W 075°18'   060 / 191032.3 5.9 9.1

Dump ship's entire track history